To NAV CANADA Home Page Login to a new session Search on AWWS site Feedback and Comments Disclaimer Vers la page française équivalente Tips FAQ What's new on the site To the Forecasts and Observations / NOTAM section To "File a Flight Plan" website Publications and other links Update of the User's profile FIC Telephone Numbers My Weather Data Folder Route Weather Data Regional Weather Data Local Weather Data To the Forecasts and Observations / NOTAM section
Request Generated 02/09/2016 at 01:09:31 UTC . Weather information available at that time is displayed.

METAR/TAF

WINNIPEG/JAMES ARMSTRONG RICHARDSON INTL/MB    

METAR CYWG 090100Z 36008KT 15SM DRSN SKC M15/M19 A3027 RMK SLP275=
METAR CYWG 090000Z 01012KT 15SM DRSN BKN028 M13/M17 A3027 RMK SC7
SLP275=
METAR CYWG 082300Z 36015KT 15SM DRSN OVC029 M12/M17 A3027 RMK SC8
SLP272=

TAF CYWG 082345Z 0900/0924 36012G22KT P6SM SCT020 BKN030 TEMPO
0900/0912 5SM BLSN BKN020 OVC030
FM091200 34010KT P6SM SCT040
FM091700 34010KT P6SM BKN050
RMK NXT FCST BY 090600Z=
Your time UTC time
Weather data provided by Environment Canada and NAV CANADA